Time;durP1;ratioP1;P1;durP2;ratioP2;P2;SDS_P1;SDS_P2;PMS_P1;PMS_P2;Temp;Humidity;BMP_temperature;BMP_pressure;BME280_temperature;BME280_humidity;BME280_pressure;Samples;Min_cycle;Max_cycle;Signal;HPM_P1;HPM_P2
2023/03/08 00:00:41;;;;;;;;;;;0.90;99.90;;;;;;4982205;28;19933;-80
2023/03/08 00:03:06;;;;;;;;;;;0.90;99.90;;;;;;5009387;28;19936;-82
2023/03/08 00:05:32;;;;;;;;;;;0.80;99.90;;;;;;4999844;28;19932;-82
2023/03/08 00:07:57;;;;;;;;;;;0.80;99.90;;;;;;4991192;28;19925;-82
2023/03/08 00:10:23;;;;;;;;;;;0.80;99.90;;;;;;5005898;28;19947;-83
2023/03/08 00:12:48;;;;;;;;;;;0.70;99.90;;;;;;4982034;28;19925;-80
2023/03/08 00:15:14;;;;;;;;;;;0.70;99.90;;;;;;4975618;28;20355;-82
2023/03/08 00:17:39;;;;;;;;;;;0.60;99.90;;;;;;4968807;28;20020;-80
2023/03/08 00:20:07;;;;;;;;;;;0.60;99.90;;;;;;4990211;28;20408;-81
2023/03/08 00:22:36;;;;;;;;;;;0.50;99.90;;;;;;4987662;28;20333;-81
2023/03/08 00:25:01;;;;;;;;;;;0.50;99.90;;;;;;4991326;28;19933;-80
2023/03/08 00:27:27;;;;;;;;;;;0.40;99.90;;;;;;4974554;28;19925;-81
2023/03/08 00:29:53;;;;;;;;;;;0.30;99.90;;;;;;4969736;28;19929;-81
2023/03/08 00:32:18;;;;;;;;;;;0.30;99.90;;;;;;4964450;28;19929;-81
2023/03/08 00:34:45;;;;;;;;;;;0.30;99.90;;;;;;4975593;28;20355;-81
2023/03/08 00:37:12;;;;;;;;;;;0.30;99.90;;;;;;4985134;28;19925;-82
2023/03/08 00:39:37;;;;;;;;;;;0.30;99.90;;;;;;4996282;28;19929;-83
2023/03/08 00:42:03;;;;;;;;;;;0.30;99.90;;;;;;4975683;28;20737;-82
2023/03/08 00:44:28;;;;;;;;;;;0.30;99.90;;;;;;4977861;28;19925;-81
2023/03/08 00:46:54;;;;;;;;;;;0.30;99.90;;;;;;4978977;28;19930;-81
2023/03/08 00:49:21;;;;;;;;;;;0.30;99.90;;;;;;4984907;28;20069;-80
2023/03/08 00:51:47;;;;;;;;;;;0.30;99.90;;;;;;4992078;28;19972;-81
2023/03/08 00:54:12;;;;;;;;;;;0.30;99.90;;;;;;4965451;28;19965;-81
2023/03/08 00:56:38;;;;;;;;;;;0.20;99.90;;;;;;4981340;28;19926;-80
2023/03/08 00:59:03;;;;;;;;;;;0.30;99.90;;;;;;4985459;28;20012;-81
2023/03/08 01:01:29;;;;;;;;;;;0.20;99.90;;;;;;4997877;28;19926;-81
2023/03/08 01:03:55;;;;;;;;;;;0.20;99.90;;;;;;4977187;28;19981;-81
2023/03/08 01:06:21;;;;;;;;;;;0.20;99.90;;;;;;4979737;28;20297;-81
2023/03/08 01:08:46;;;;;;;;;;;0.20;99.90;;;;;;4996943;28;19930;-80
2023/03/08 01:11:14;;;;;;;;;;;0.20;99.90;;;;;;4968321;28;20069;-82
2023/03/08 01:13:39;;;;;;;;;;;0.20;99.90;;;;;;4981038;28;19937;-82
2023/03/08 01:16:05;;;;;;;;;;;0.20;99.90;;;;;;5009298;28;19926;-82
2023/03/08 01:18:30;;;;;;;;;;;0.20;99.90;;;;;;4989956;28;19926;-81
2023/03/08 01:20:57;;;;;;;;;;;0.20;99.90;;;;;;4979872;28;20467;-81
2023/03/08 01:23:23;;;;;;;;;;;0.20;99.90;;;;;;4984669;28;19971;-80
2023/03/08 01:25:48;;;;;;;;;;;0.20;99.90;;;;;;4963835;28;20016;-81
2023/03/08 01:28:14;;;;;;;;;;;0.20;99.90;;;;;;4999228;28;20308;-81
2023/03/08 01:30:39;;;;;;;;;;;0.20;99.90;;;;;;4979308;28;19926;-81
2023/03/08 01:33:05;;;;;;;;;;;0.10;99.90;;;;;;4972588;28;20308;-80
2023/03/08 01:35:30;;;;;;;;;;;0.10;99.90;;;;;;4993003;28;19933;-81
2023/03/08 01:37:56;;;;;;;;;;;0.10;99.90;;;;;;4982174;28;20433;-81
2023/03/08 01:40:21;;;;;;;;;;;0.10;99.90;;;;;;4979668;28;20279;-81
2023/03/08 01:42:47;;;;;;;;;;;0.00;99.90;;;;;;4992141;28;19925;-81
2023/03/08 01:45:31;;;;;;;;;;;0.10;99.90;;;;;;4990501;28;19925;-81
2023/03/08 01:47:56;;;;;;;;;;;0.00;99.90;;;;;;4994993;28;19929;-81
2023/03/08 01:50:22;;;;;;;;;;;0.00;99.90;;;;;;5009737;28;19936;-81
2023/03/08 01:52:50;;;;;;;;;;;0.00;99.90;;;;;;4978844;28;20366;-81
2023/03/08 01:55:16;;;;;;;;;;;0.00;99.90;;;;;;4987691;28;20424;-81
2023/03/08 01:57:50;;;;;;;;;;;0.00;99.90;;;;;;4997181;28;19930;-81
2023/03/08 02:00:23;;;;;;;;;;;0.00;99.90;;;;;;4990599;28;19977;-81
2023/03/08 02:02:50;;;;;;;;;;;0.00;99.90;;;;;;5002050;28;19973;-81
2023/03/08 02:05:17;;;;;;;;;;;0.00;99.90;;;;;;4992623;28;20301;-81
2023/03/08 02:07:43;;;;;;;;;;;0.00;99.90;;;;;;4992813;28;19925;-81
2023/03/08 02:10:09;;;;;;;;;;;0.00;99.90;;;;;;4990445;28;19936;-81
2023/03/08 02:12:35;;;;;;;;;;;0.00;99.90;;;;;;4985689;28;19937;-82
2023/03/08 02:15:02;;;;;;;;;;;-0.10;99.90;;;;;;4987107;28;19925;-81
2023/03/08 02:17:28;;;;;;;;;;;-0.10;99.90;;;;;;5021814;28;19930;-81
2023/03/08 02:20:00;;;;;;;;;;;-0.10;99.90;;;;;;5016241;28;19952;-81
2023/03/08 02:22:26;;;;;;;;;;;-0.10;99.90;;;;;;4994490;28;20411;-82
2023/03/08 02:24:51;;;;;;;;;;;-0.10;99.90;;;;;;4981718;28;19925;-82
2023/03/08 02:27:20;;;;;;;;;;;-0.10;99.90;;;;;;4990920;28;19932;-81
2023/03/08 02:29:45;;;;;;;;;;;-0.20;99.90;;;;;;5012441;28;19925;-82
2023/03/08 02:32:11;;;;;;;;;;;-0.20;99.90;;;;;;4993834;28;19932;-82
2023/03/08 02:34:37;;;;;;;;;;;-0.20;99.90;;;;;;4977481;28;20308;-82
2023/03/08 02:37:02;;;;;;;;;;;-0.20;99.90;;;;;;5011304;28;19964;-82
2023/03/08 02:39:28;;;;;;;;;;;-0.30;99.90;;;;;;4986937;28;19949;-82
2023/03/08 02:41:53;;;;;;;;;;;-0.30;99.90;;;;;;4987428;28;19925;-82
2023/03/08 02:44:19;;;;;;;;;;;-0.30;99.90;;;;;;4999162;28;20024;-81
2023/03/08 02:46:44;;;;;;;;;;;-0.30;99.90;;;;;;5024134;28;19929;-82
2023/03/08 02:49:10;;;;;;;;;;;-0.30;99.90;;;;;;4991739;28;20454;-82
2023/03/08 02:51:35;;;;;;;;;;;-0.30;99.90;;;;;;4991140;28;20009;-82
2023/03/08 02:54:01;;;;;;;;;;;-0.30;99.90;;;;;;4978534;28;19926;-82
2023/03/08 02:56:26;;;;;;;;;;;-0.40;99.90;;;;;;5003747;28;19926;-82
2023/03/08 02:58:52;;;;;;;;;;;-0.40;99.90;;;;;;4991602;28;20039;-83
2023/03/08 03:01:17;;;;;;;;;;;-0.40;99.90;;;;;;5009976;28;19926;-83
2023/03/08 03:03:43;;;;;;;;;;;-0.40;99.90;;;;;;4980538;28;20255;-82
2023/03/08 03:06:15;;;;;;;;;;;-0.40;99.90;;;;;;4980643;28;19925;-82
2023/03/08 03:08:41;;;;;;;;;;;-0.40;99.90;;;;;;5007422;28;19969;-82
2023/03/08 03:11:15;;;;;;;;;;;-0.40;99.90;;;;;;4992599;28;20237;-83
2023/03/08 03:13:40;;;;;;;;;;;-0.50;99.90;;;;;;4992615;28;20443;-82
2023/03/08 03:16:11;;;;;;;;;;;-0.50;99.90;;;;;;4992473;28;19937;-82
2023/03/08 03:18:36;;;;;;;;;;;-0.50;99.90;;;;;;4998848;28;19952;-82
2023/03/08 03:21:03;;;;;;;;;;;-0.50;99.90;;;;;;4976609;28;19926;-83
2023/03/08 03:23:28;;;;;;;;;;;-0.50;99.90;;;;;;4977712;28;19961;-83
2023/03/08 03:25:54;;;;;;;;;;;-0.50;99.90;;;;;;4976939;28;20428;-84
2023/03/08 03:28:19;;;;;;;;;;;-0.50;99.90;;;;;;5003557;28;19930;-82
2023/03/08 03:30:45;;;;;;;;;;;-0.50;99.90;;;;;;4974900;28;19933;-82
2023/03/08 03:33:10;;;;;;;;;;;-0.50;99.90;;;;;;5004434;28;19932;-83
2023/03/08 03:35:37;;;;;;;;;;;-0.60;99.90;;;;;;4975066;28;19952;-82
2023/03/08 03:38:02;;;;;;;;;;;-0.60;99.90;;;;;;4975602;28;19981;-82
2023/03/08 03:40:28;;;;;;;;;;;-0.60;99.90;;;;;;5006419;28;20324;-82
2023/03/08 03:42:53;;;;;;;;;;;-0.60;99.90;;;;;;5014422;28;19972;-82
2023/03/08 03:45:19;;;;;;;;;;;-0.60;99.90;;;;;;4987889;28;20818;-82
2023/03/08 03:47:46;;;;;;;;;;;-0.60;99.90;;;;;;4975243;28;19930;-82
2023/03/08 03:50:11;;;;;;;;;;;-0.70;99.90;;;;;;4994872;28;20418;-83
2023/03/08 03:52:37;;;;;;;;;;;-0.60;99.90;;;;;;4959513;28;19965;-82
2023/03/08 03:55:02;;;;;;;;;;;-0.60;99.90;;;;;;4994456;28;19925;-82
2023/03/08 03:57:28;;;;;;;;;;;-0.60;99.90;;;;;;4992347;28;19926;-82
2023/03/08 03:59:53;;;;;;;;;;;-0.60;99.90;;;;;;4983657;28;19933;-83
2023/03/08 04:02:19;;;;;;;;;;;-0.60;99.90;;;;;;4973258;28;19952;-82
2023/03/08 04:04:47;;;;;;;;;;;-0.50;99.90;;;;;;4992328;28;20020;-83
2023/03/08 04:07:12;;;;;;;;;;;-0.50;99.90;;;;;;4992852;28;20290;-82
2023/03/08 04:09:38;;;;;;;;;;;-0.50;99.90;;;;;;4988443;28;19932;-82
2023/03/08 04:12:04;;;;;;;;;;;-0.40;99.90;;;;;;5014287;28;19929;-82
2023/03/08 04:14:30;;;;;;;;;;;-0.40;99.90;;;;;;4992120;28;19976;-81
2023/03/08 04:16:55;;;;;;;;;;;-0.30;99.90;;;;;;5014338;28;20044;-81
2023/03/08 04:19:21;;;;;;;;;;;-0.30;99.90;;;;;;4992533;28;20379;-81
2023/03/08 04:21:46;;;;;;;;;;;-0.30;99.90;;;;;;4965233;28;19926;-81
2023/03/08 04:24:12;;;;;;;;;;;-0.30;99.90;;;;;;4982593;28;19971;-80
2023/03/08 04:26:37;;;;;;;;;;;-0.30;99.90;;;;;;4969858;28;20600;-81
2023/03/08 04:29:04;;;;;;;;;;;-0.30;99.90;;;;;;4993172;28;19925;-81
2023/03/08 04:31:31;;;;;;;;;;;-0.30;99.90;;;;;;4981551;28;19926;-81
2023/03/08 04:33:59;;;;;;;;;;;-0.30;99.90;;;;;;4975475;28;19940;-82
2023/03/08 04:36:25;;;;;;;;;;;-0.40;99.90;;;;;;4980905;28;19948;-81
2023/03/08 04:38:51;;;;;;;;;;;-0.40;99.90;;;;;;4986255;28;20382;-81
2023/03/08 04:41:16;;;;;;;;;;;-0.40;99.90;;;;;;4988855;28;19930;-81
2023/03/08 04:43:49;;;;;;;;;;;-0.50;99.90;;;;;;4984202;28;19930;-81
2023/03/08 04:46:16;;;;;;;;;;;-0.50;99.90;;;;;;4985336;28;20048;-81
2023/03/08 04:48:41;;;;;;;;;;;-0.50;99.90;;;;;;5003318;28;19925;-83
2023/03/08 04:51:07;;;;;;;;;;;-0.50;99.90;;;;;;5013771;28;19926;-82
2023/03/08 04:53:33;;;;;;;;;;;-0.60;99.90;;;;;;4989331;28;19964;-81
2023/03/08 04:55:59;;;;;;;;;;;-0.50;99.90;;;;;;4984515;28;19973;-82
2023/03/08 04:58:28;;;;;;;;;;;-0.60;99.90;;;;;;4996754;28;19933;-82
2023/03/08 05:00:54;;;;;;;;;;;-0.60;99.90;;;;;;4995520;28;19983;-82
2023/03/08 05:03:19;;;;;;;;;;;-0.60;99.90;;;;;;4995802;28;20440;-81
2023/03/08 05:05:49;;;;;;;;;;;-0.50;99.90;;;;;;4987910;28;19937;-82
2023/03/08 05:08:15;;;;;;;;;;;-0.60;99.90;;;;;;4986187;28;20020;-82
2023/03/08 05:10:48;;;;;;;;;;;-0.60;99.90;;;;;;4995670;28;20056;-82
2023/03/08 05:13:13;;;;;;;;;;;-0.50;99.90;;;;;;4996405;28;19933;-82
2023/03/08 05:15:39;;;;;;;;;;;-0.60;99.90;;;;;;4995503;28;20061;-82
2023/03/08 05:18:04;;;;;;;;;;;-0.50;99.90;;;;;;4997146;28;19925;-83
2023/03/08 05:20:30;;;;;;;;;;;-0.60;99.90;;;;;;5013296;28;19937;-83
2023/03/08 05:22:55;;;;;;;;;;;-0.60;99.90;;;;;;5025424;28;19925;-83
2023/03/08 05:25:21;;;;;;;;;;;-0.60;99.90;;;;;;4999685;28;20283;-82
2023/03/08 05:27:46;;;;;;;;;;;-0.60;99.90;;;;;;5020972;28;20308;-83
2023/03/08 05:30:12;;;;;;;;;;;-0.60;99.90;;;;;;5012054;28;20308;-82
2023/03/08 05:32:38;;;;;;;;;;;-0.60;99.90;;;;;;4978125;28;19933;-82
2023/03/08 05:35:03;;;;;;;;;;;-0.60;99.90;;;;;;4977610;28;19930;-82
2023/03/08 05:37:29;;;;;;;;;;;-0.60;99.90;;;;;;4985383;28;19931;-82
2023/03/08 05:39:54;;;;;;;;;;;-0.60;99.90;;;;;;5024511;28;19980;-82
2023/03/08 05:42:20;;;;;;;;;;;-0.60;99.90;;;;;;4977794;28;20033;-83
2023/03/08 05:44:45;;;;;;;;;;;-0.60;99.90;;;;;;4991992;28;19925;-82
2023/03/08 05:47:11;;;;;;;;;;;-0.60;99.90;;;;;;4970516;28;19925;-82
2023/03/08 05:49:36;;;;;;;;;;;-0.60;99.90;;;;;;5009272;28;19933;-81
2023/03/08 05:52:02;;;;;;;;;;;-0.60;99.90;;;;;;5021161;28;20066;-82
2023/03/08 05:54:27;;;;;;;;;;;-0.60;99.90;;;;;;4967412;28;19925;-83
2023/03/08 05:56:53;;;;;;;;;;;-0.60;99.90;;;;;;4977175;28;19984;-82
2023/03/08 05:59:18;;;;;;;;;;;-0.60;99.90;;;;;;4975247;28;19925;-82
2023/03/08 06:01:44;;;;;;;;;;;-0.60;99.90;;;;;;4994533;28;20400;-82
2023/03/08 06:04:09;;;;;;;;;;;-0.70;99.90;;;;;;4995269;28;19925;-83
2023/03/08 06:06:35;;;;;;;;;;;-0.70;99.90;;;;;;4978967;28;19931;-83
2023/03/08 06:09:00;;;;;;;;;;;-0.60;99.90;;;;;;4994607;28;19925;-83
2023/03/08 06:11:26;;;;;;;;;;;-0.70;99.90;;;;;;4993668;28;19925;-82
2023/03/08 06:13:52;;;;;;;;;;;-0.60;99.90;;;;;;4994544;28;19932;-82
2023/03/08 06:16:17;;;;;;;;;;;-0.60;99.90;;;;;;4994112;28;19955;-83
2023/03/08 06:18:43;;;;;;;;;;;-0.60;99.90;;;;;;4992731;28;19954;-83
2023/03/08 06:21:13;;;;;;;;;;;-0.60;99.90;;;;;;4976074;28;19926;-83
2023/03/08 06:23:38;;;;;;;;;;;-0.60;99.90;;;;;;4979230;28;19926;-83
2023/03/08 06:26:05;;;;;;;;;;;-0.60;99.90;;;;;;4978479;28;19933;-83
2023/03/08 06:28:31;;;;;;;;;;;-0.60;99.90;;;;;;4962057;28;20639;-83
2023/03/08 06:30:56;;;;;;;;;;;-0.60;99.90;;;;;;4986383;28;20024;-84
2023/03/08 06:33:23;;;;;;;;;;;-0.60;99.90;;;;;;4977817;28;19941;-83
2023/03/08 06:35:57;;;;;;;;;;;-0.60;99.90;;;;;;4976219;28;19926;-83
2023/03/08 06:38:23;;;;;;;;;;;-0.60;99.90;;;;;;4963106;28;19925;-83
2023/03/08 06:40:48;;;;;;;;;;;-0.60;99.90;;;;;;4976150;28;19936;-84
2023/03/08 06:43:14;;;;;;;;;;;-0.60;99.90;;;;;;4979419;28;19934;-80
2023/03/08 06:45:39;;;;;;;;;;;-0.50;99.90;;;;;;5003263;28;19980;-79
2023/03/08 06:48:05;;;;;;;;;;;-0.50;99.90;;;;;;5005516;28;20565;-81
2023/03/08 06:50:31;;;;;;;;;;;-0.50;99.90;;;;;;4990741;28;19929;-81
2023/03/08 06:52:57;;;;;;;;;;;-0.40;99.90;;;;;;4991160;28;19929;-81
2023/03/08 06:55:22;;;;;;;;;;;-0.40;99.90;;;;;;4985102;28;19933;-82
2023/03/08 06:57:48;;;;;;;;;;;-0.40;99.90;;;;;;4985181;28;19971;-81
2023/03/08 07:00:14;;;;;;;;;;;-0.40;99.90;;;;;;4981035;28;19929;-81
2023/03/08 07:02:40;;;;;;;;;;;-0.30;99.90;;;;;;4978365;28;19926;-81
2023/03/08 07:05:05;;;;;;;;;;;-0.30;99.90;;;;;;5002584;28;19932;-82
2023/03/08 07:07:31;;;;;;;;;;;-0.30;99.90;;;;;;4980622;28;19929;-82
2023/03/08 07:09:57;;;;;;;;;;;-0.30;99.90;;;;;;4984972;28;19933;-82
2023/03/08 07:12:22;;;;;;;;;;;-0.30;99.90;;;;;;4990090;28;19932;-82
2023/03/08 07:14:50;;;;;;;;;;;-0.30;99.90;;;;;;4985599;28;19936;-82
2023/03/08 07:17:15;;;;;;;;;;;-0.20;99.90;;;;;;4974905;28;19925;-82
2023/03/08 07:19:41;;;;;;;;;;;-0.20;99.90;;;;;;4975699;28;20346;-82
2023/03/08 07:22:06;;;;;;;;;;;-0.20;99.90;;;;;;4989890;28;19931;-81
2023/03/08 07:24:32;;;;;;;;;;;-0.20;99.90;;;;;;4984894;28;19933;-82
2023/03/08 07:26:57;;;;;;;;;;;-0.20;99.90;;;;;;4991647;28;19996;-82
2023/03/08 07:29:23;;;;;;;;;;;-0.20;99.90;;;;;;5010638;28;19932;-83
2023/03/08 07:31:48;;;;;;;;;;;-0.10;99.90;;;;;;4999077;28;19969;-82
2023/03/08 07:34:14;;;;;;;;;;;-0.10;99.90;;;;;;4992654;28;19933;-82
2023/03/08 07:36:40;;;;;;;;;;;-0.10;99.90;;;;;;4992644;28;20309;-82
2023/03/08 07:39:05;;;;;;;;;;;0.00;99.90;;;;;;5006212;28;19929;-82
2023/03/08 07:41:33;;;;;;;;;;;0.00;99.90;;;;;;5005635;28;19936;-82
2023/03/08 07:43:59;;;;;;;;;;;0.00;99.90;;;;;;4983701;28;19926;-82
2023/03/08 07:46:24;;;;;;;;;;;0.10;99.90;;;;;;5004257;28;19925;-82
2023/03/08 07:48:51;;;;;;;;;;;0.10;99.90;;;;;;4992298;28;19925;-82
2023/03/08 07:51:16;;;;;;;;;;;0.20;99.90;;;;;;4982249;28;19971;-82
2023/03/08 07:53:42;;;;;;;;;;;0.20;99.90;;;;;;4992534;28;19930;-83
2023/03/08 07:56:07;;;;;;;;;;;0.20;99.90;;;;;;4992038;28;19936;-82
2023/03/08 07:58:33;;;;;;;;;;;0.30;99.90;;;;;;4983757;28;20048;-83
2023/03/08 08:00:58;;;;;;;;;;;0.30;99.90;;;;;;4992122;28;19929;-82
2023/03/08 08:03:24;;;;;;;;;;;0.30;99.90;;;;;;4993034;28;19933;-83
2023/03/08 08:05:49;;;;;;;;;;;0.40;99.90;;;;;;4982333;28;20036;-83
2023/03/08 08:08:15;;;;;;;;;;;0.40;99.90;;;;;;4975906;28;19929;-82
2023/03/08 08:10:41;;;;;;;;;;;0.40;99.90;;;;;;5005182;28;19984;-83
2023/03/08 08:13:07;;;;;;;;;;;0.40;99.90;;;;;;4992652;28;19926;-83
2023/03/08 08:15:32;;;;;;;;;;;0.40;99.90;;;;;;4993388;28;20302;-83
2023/03/08 08:17:58;;;;;;;;;;;0.40;99.90;;;;;;4997172;28;20352;-82
2023/03/08 08:20:25;;;;;;;;;;;0.40;99.90;;;;;;4996792;28;20013;-83
2023/03/08 08:22:52;;;;;;;;;;;0.50;99.90;;;;;;4997217;28;19933;-83
2023/03/08 08:25:18;;;;;;;;;;;0.50;99.90;;;;;;5005323;28;19934;-83
2023/03/08 08:27:43;;;;;;;;;;;0.60;99.90;;;;;;4979620;28;19937;-83
2023/03/08 08:30:11;;;;;;;;;;;0.60;99.90;;;;;;5006254;28;19933;-83
2023/03/08 08:32:37;;;;;;;;;;;0.70;99.90;;;;;;4968877;28;19925;-83
2023/03/08 08:35:03;;;;;;;;;;;0.80;99.90;;;;;;4981733;28;20017;-83
2023/03/08 08:37:30;;;;;;;;;;;0.80;99.90;;;;;;4980495;28;20297;-83
2023/03/08 08:39:55;;;;;;;;;;;0.80;99.90;;;;;;4992361;28;19976;-83
2023/03/08 08:42:21;;;;;;;;;;;0.90;99.90;;;;;;4968911;28;19964;-83
2023/03/08 08:44:46;;;;;;;;;;;0.90;99.90;;;;;;4984853;28;19930;-83
2023/03/08 08:47:12;;;;;;;;;;;1.00;99.90;;;;;;4989537;28;19936;-83
2023/03/08 08:49:38;;;;;;;;;;;1.10;99.90;;;;;;4985918;28;20004;-83
2023/03/08 08:52:03;;;;;;;;;;;1.20;99.90;;;;;;5005813;28;19960;-83
2023/03/08 08:54:29;;;;;;;;;;;1.30;99.90;;;;;;4984670;28;20305;-83
2023/03/08 08:56:55;;;;;;;;;;;1.30;99.90;;;;;;4990091;28;19929;-83
2023/03/08 08:59:20;;;;;;;;;;;1.40;99.90;;;;;;4986312;28;20344;-83
2023/03/08 09:01:46;;;;;;;;;;;1.40;99.90;;;;;;5003581;28;19933;-83
2023/03/08 09:04:12;;;;;;;;;;;1.40;99.90;;;;;;4980966;28;19925;-82
2023/03/08 09:06:38;;;;;;;;;;;1.50;99.90;;;;;;4988262;28;20397;-83
2023/03/08 09:09:04;;;;;;;;;;;1.60;99.90;;;;;;4970596;28;19984;-83
2023/03/08 09:11:30;;;;;;;;;;;1.70;99.90;;;;;;4983388;28;19969;-83
2023/03/08 09:13:56;;;;;;;;;;;1.70;99.90;;;;;;4994486;28;19925;-83
2023/03/08 09:16:26;;;;;;;;;;;1.80;99.90;;;;;;4991344;28;20013;-83
2023/03/08 09:18:51;;;;;;;;;;;1.90;99.90;;;;;;4975964;28;20019;-81
2023/03/08 09:21:17;;;;;;;;;;;2.10;99.90;;;;;;4989331;28;20012;-82
2023/03/08 09:23:43;;;;;;;;;;;2.20;99.90;;;;;;4969729;28;20320;-82
2023/03/08 09:26:09;;;;;;;;;;;2.30;99.90;;;;;;5011230;28;19925;-82
2023/03/08 09:28:35;;;;;;;;;;;2.40;99.90;;;;;;4996269;28;19926;-82
2023/03/08 09:31:06;;;;;;;;;;;2.60;99.90;;;;;;5021629;28;19929;-81
2023/03/08 09:33:32;;;;;;;;;;;2.80;99.90;;;;;;4994511;28;19929;-81
2023/03/08 09:35:58;;;;;;;;;;;2.90;99.90;;;;;;5020073;28;19932;-81
2023/03/08 09:38:23;;;;;;;;;;;3.00;99.90;;;;;;4988779;28;19949;-82
2023/03/08 09:41:15;;;;;;;;;;;3.20;99.90;;;;;;4960266;28;20382;-81
2023/03/08 09:43:53;;;;;;;;;;;3.30;99.90;;;;;;4979390;28;20332;-82
2023/03/08 09:46:21;;;;;;;;;;;3.50;99.90;;;;;;4981620;28;19933;-82
2023/03/08 09:48:48;;;;;;;;;;;3.60;99.90;;;;;;4961677;28;20808;-82
2023/03/08 09:51:15;;;;;;;;;;;3.60;99.90;;;;;;4977801;28;20309;-82
2023/03/08 09:53:53;;;;;;;;;;;3.60;99.90;;;;;;4960885;28;19929;-81
2023/03/08 09:56:23;;;;;;;;;;;3.70;99.90;;;;;;4989763;28;19940;-82
2023/03/08 09:58:48;;;;;;;;;;;3.80;99.90;;;;;;4985979;28;20352;-82
2023/03/08 10:01:17;;;;;;;;;;;3.90;99.90;;;;;;4983312;28;19933;-82
2023/03/08 10:04:01;;;;;;;;;;;4.00;99.90;;;;;;4977273;28;19932;-82
2023/03/08 10:06:33;;;;;;;;;;;4.10;99.90;;;;;;4976269;28;19925;-82
2023/03/08 10:09:17;;;;;;;;;;;4.40;99.90;;;;;;4963433;28;19926;-83
2023/03/08 10:11:47;;;;;;;;;;;4.60;99.90;;;;;;4985213;28;19933;-82
2023/03/08 10:14:27;;;;;;;;;;;4.70;99.90;;;;;;4980177;28;19925;-82
2023/03/08 10:16:56;;;;;;;;;;;4.90;99.90;;;;;;4987113;28;20382;-82
2023/03/08 10:19:34;;;;;;;;;;;5.00;99.90;;;;;;4993179;28;19925;-82
2023/03/08 10:22:02;;;;;;;;;;;5.10;99.90;;;;;;4986809;28;19968;-83
2023/03/08 10:24:33;;;;;;;;;;;5.10;99.90;;;;;;4992786;28;19948;-82
2023/03/08 10:27:05;;;;;;;;;;;5.20;99.90;;;;;;4983658;28;19961;-82
2023/03/08 10:29:31;;;;;;;;;;;5.30;99.90;;;;;;4985356;28;19972;-82
2023/03/08 10:31:56;;;;;;;;;;;5.30;99.90;;;;;;4963933;28;20031;-82
2023/03/08 10:34:27;;;;;;;;;;;5.40;99.90;;;;;;5010445;28;19925;-82
2023/03/08 10:37:01;;;;;;;;;;;5.50;99.90;;;;;;4992875;28;19932;-82
2023/03/08 10:39:26;;;;;;;;;;;5.70;99.90;;;;;;4981524;28;19932;-82
2023/03/08 10:42:00;;;;;;;;;;;5.90;99.90;;;;;;4976509;28;19926;-83
2023/03/08 10:44:32;;;;;;;;;;;6.10;99.90;;;;;;4986989;28;19952;-82
2023/03/08 10:46:58;;;;;;;;;;;6.40;99.90;;;;;;4992582;28;20396;-82
2023/03/08 10:49:24;;;;;;;;;;;6.70;99.90;;;;;;4966349;28;19925;-83
2023/03/08 10:51:57;;;;;;;;;;;6.90;99.90;;;;;;5004072;28;19933;-82
2023/03/08 10:54:23;;;;;;;;;;;7.20;99.90;;;;;;4976860;28;20348;-82
2023/03/08 10:56:51;;;;;;;;;;;7.70;99.90;;;;;;4981584;28;20405;-83
2023/03/08 10:59:26;;;;;;;;;;;8.00;99.90;;;;;;4993062;28;19925;-83
2023/03/08 11:01:53;;;;;;;;;;;8.00;99.90;;;;;;5011158;28;19932;-83
2023/03/08 11:04:20;;;;;;;;;;;7.80;99.90;;;;;;5010795;28;19925;-83
2023/03/08 11:06:45;;;;;;;;;;;7.60;99.90;;;;;;4993186;28;19930;-82
2023/03/08 11:09:22;;;;;;;;;;;7.70;99.90;;;;;;4993890;28;21007;-83
2023/03/08 11:11:48;;;;;;;;;;;7.80;99.90;;;;;;4994312;28;19925;-83
2023/03/08 11:14:14;;;;;;;;;;;7.80;99.90;;;;;;5013586;28;19976;-82
2023/03/08 11:16:58;;;;;;;;;;;7.80;99.90;;;;;;5011011;28;19926;-83
2023/03/08 11:19:32;;;;;;;;;;;7.80;99.90;;;;;;5008085;28;19926;-83
2023/03/08 11:21:59;;;;;;;;;;;7.90;99.90;;;;;;5011768;28;19933;-83
2023/03/08 11:24:24;;;;;;;;;;;7.90;99.90;;;;;;5010505;28;20011;-82
2023/03/08 11:26:49;;;;;;;;;;;7.90;99.90;;;;;;5010317;28;19960;-83
2023/03/08 11:29:25;;;;;;;;;;;7.90;99.90;;;;;;5010706;28;19933;-82
2023/03/08 11:31:54;;;;;;;;;;;8.00;99.90;;;;;;5010393;28;19967;-83
2023/03/08 11:34:38;;;;;;;;;;;8.00;99.90;;;;;;4976523;28;19925;-83
2023/03/08 11:37:22;;;;;;;;;;;8.00;99.90;;;;;;5000097;28;19930;-83
2023/03/08 11:39:53;;;;;;;;;;;7.90;99.90;;;;;;5009041;28;20633;-82
2023/03/08 11:42:32;;;;;;;;;;;7.90;99.90;;;;;;5009512;28;20304;-83
2023/03/08 11:45:17;;;;;;;;;;;7.90;99.90;;;;;;4989782;28;19932;-83
2023/03/08 11:47:50;;;;;;;;;;;8.10;99.90;;;;;;4976465;28;20008;-83
2023/03/08 11:50:15;;;;;;;;;;;8.10;99.90;;;;;;5009848;28;20412;-83
2023/03/08 11:52:53;;;;;;;;;;;7.80;99.90;;;;;;5010766;28;19925;-83
2023/03/08 11:55:27;;;;;;;;;;;7.60;99.90;;;;;;4994626;28;19932;-83
2023/03/08 11:58:10;;;;;;;;;;;7.50;99.90;;;;;;4994934;28;20055;-82
2023/03/08 12:00:38;;;;;;;;;;;7.50;99.90;;;;;;4990677;28;19926;-82
2023/03/08 12:03:24;;;;;;;;;;;7.30;99.90;;;;;;5001530;28;19925;-82
2023/03/08 12:05:52;;;;;;;;;;;7.20;99.90;;;;;;4999868;28;19979;-82
2023/03/08 12:08:23;;;;;;;;;;;7.20;99.90;;;;;;5000462;28;19931;-82
2023/03/08 12:11:01;;;;;;;;;;;7.20;99.90;;;;;;5012951;28;19925;-83
2023/03/08 12:13:33;;;;;;;;;;;7.30;99.90;;;;;;4992446;28;20011;-82
2023/03/08 12:16:01;;;;;;;;;;;7.50;99.90;;;;;;5006615;28;20389;-82
2023/03/08 12:18:47;;;;;;;;;;;7.60;99.90;;;;;;4993743;28;20455;-82
2023/03/08 12:21:32;;;;;;;;;;;7.80;99.90;;;;;;4991283;28;19973;-83
2023/03/08 12:24:16;;;;;;;;;;;8.00;99.90;;;;;;4997985;28;20523;-83
2023/03/08 12:26:47;;;;;;;;;;;8.10;99.90;;;;;;4996046;28;20294;-81
2023/03/08 12:29:17;;;;;;;;;;;8.20;99.90;;;;;;5000391;28;19964;-83
2023/03/08 12:31:44;;;;;;;;;;;8.20;99.90;;;;;;5009806;28;19926;-83
2023/03/08 12:34:23;;;;;;;;;;;8.20;99.90;;;;;;5003338;28;19965;-83
2023/03/08 12:36:49;;;;;;;;;;;8.20;99.90;;;;;;4990001;28;20396;-84
2023/03/08 12:39:31;;;;;;;;;;;8.10;99.90;;;;;;5010023;28;20016;-84
2023/03/08 12:41:58;;;;;;;;;;;8.10;99.90;;;;;;4992159;28;19973;-84
2023/03/08 12:44:28;;;;;;;;;;;8.10;99.90;;;;;;5009936;28;19925;-83
2023/03/08 12:46:56;;;;;;;;;;;8.00;99.90;;;;;;4997193;28;19951;-83
2023/03/08 12:49:26;;;;;;;;;;;8.10;99.90;;;;;;4993019;28;19961;-82
2023/03/08 12:51:56;;;;;;;;;;;8.00;99.90;;;;;;5009295;28;20016;-82
2023/03/08 12:54:22;;;;;;;;;;;8.10;99.90;;;;;;5008889;28;19933;-82
2023/03/08 12:56:48;;;;;;;;;;;8.20;99.90;;;;;;5003366;28;20301;-82
2023/03/08 12:59:13;;;;;;;;;;;8.20;99.90;;;;;;4987221;28;20558;-82
2023/03/08 13:01:38;;;;;;;;;;;8.20;99.90;;;;;;4983079;28;20008;-82
2023/03/08 13:04:23;;;;;;;;;;;8.40;99.90;;;;;;4995577;28;19930;-83
2023/03/08 13:06:52;;;;;;;;;;;8.50;99.90;;;;;;4998253;28;20016;-83
2023/03/08 13:09:23;;;;;;;;;;;8.60;99.90;;;;;;5002521;28;19925;-82
2023/03/08 13:11:57;;;;;;;;;;;8.80;99.90;;;;;;4997980;28;20377;-82
2023/03/08 13:14:22;;;;;;;;;;;8.70;99.90;;;;;;4983277;28;20021;-82
2023/03/08 13:16:48;;;;;;;;;;;8.70;99.90;;;;;;4978571;28;20016;-82
2023/03/08 13:19:14;;;;;;;;;;;8.70;99.90;;;;;;5002240;28;19988;-82
2023/03/08 13:21:53;;;;;;;;;;;8.50;99.90;;;;;;5002366;28;19953;-83
2023/03/08 13:24:35;;;;;;;;;;;8.50;99.90;;;;;;4996002;28;20341;-82
2023/03/08 13:27:08;;;;;;;;;;;8.40;99.90;;;;;;5007492;28;19968;-82
2023/03/08 13:29:34;;;;;;;;;;;8.30;99.90;;;;;;5020534;28;19932;-82
2023/03/08 13:32:10;;;;;;;;;;;8.20;99.90;;;;;;5011229;28;20345;-82
2023/03/08 13:34:36;;;;;;;;;;;8.10;99.90;;;;;;5005328;28;19932;-83
2023/03/08 13:37:01;;;;;;;;;;;8.00;99.90;;;;;;4995368;28;19929;-82
2023/03/08 13:39:28;;;;;;;;;;;7.90;99.90;;;;;;4994815;28;19926;-83
2023/03/08 13:42:10;;;;;;;;;;;7.90;99.90;;;;;;5012005;28;19930;-82
2023/03/08 13:44:35;;;;;;;;;;;7.80;99.90;;;;;;5013131;28;19926;-83
2023/03/08 13:47:03;;;;;;;;;;;7.60;99.90;;;;;;4994707;28;19971;-83
2023/03/08 13:49:31;;;;;;;;;;;7.50;99.90;;;;;;5014613;28;20401;-83
2023/03/08 13:51:58;;;;;;;;;;;7.40;99.90;;;;;;5003596;28;19929;-83
2023/03/08 13:54:31;;;;;;;;;;;7.30;99.90;;;;;;5014494;28;19947;-83
2023/03/08 13:56:58;;;;;;;;;;;7.20;99.90;;;;;;5013099;28;19969;-83
2023/03/08 13:59:24;;;;;;;;;;;7.20;99.90;;;;;;5011369;28;20456;-83
2023/03/08 14:01:51;;;;;;;;;;;7.20;99.90;;;;;;5001776;28;20013;-83
2023/03/08 14:04:21;;;;;;;;;;;7.10;99.90;;;;;;5000715;28;19975;-83
2023/03/08 14:06:48;;;;;;;;;;;7.00;99.90;;;;;;5008935;28;19968;-83
2023/03/08 14:09:13;;;;;;;;;;;6.90;99.90;;;;;;5010876;28;19925;-82
2023/03/08 14:11:40;;;;;;;;;;;6.80;99.90;;;;;;5011251;28;19972;-83
2023/03/08 14:14:12;;;;;;;;;;;6.80;99.90;;;;;;5007132;28;20011;-82
2023/03/08 14:16:40;;;;;;;;;;;6.80;99.90;;;;;;4985654;28;19925;-83
2023/03/08 14:19:18;;;;;;;;;;;6.80;99.90;;;;;;5022002;28;20336;-83
2023/03/08 14:22:03;;;;;;;;;;;6.80;99.90;;;;;;5010782;28;20392;-83
2023/03/08 14:24:33;;;;;;;;;;;6.90;99.90;;;;;;5001260;28;19972;-83
2023/03/08 14:27:03;;;;;;;;;;;7.00;99.90;;;;;;5008819;28;19929;-82
2023/03/08 14:29:30;;;;;;;;;;;7.00;99.90;;;;;;5002448;28;19925;-83